Time,TemperatureF,DewpointF,PressureIn,WindDirection,WindDirectionDegrees,WindSpeedMPH,WindSpeedGustMPH,Humidity,HourlyPrecipIn,Conditions,Clouds,dailyrainin,SoftwareType,DateUTC
2013-02-11 00:02:00,45.1,41.0,29.81,SW,225,1.9,2.6,87,0.00,,,0.00,Rainwise IP-100,2013-02-11 08:02:00,
2013-02-11 00:07:00,44.8,41.0,29.81,SW,225,0.0,2.3,87,0.00,,,0.00,Rainwise IP-100,2013-02-11 08:07:00,
2013-02-11 00:12:00,44.4,40.0,29.81,SW,225,0.0,1.4,87,0.00,,,0.00,Rainwise IP-100,2013-02-11 08:12:00,
2013-02-11 00:17:00,44.5,41.0,29.81,SE,135,1.2,1.9,86,0.00,,,0.00,Rainwise IP-100,2013-02-11 08:17:00,
2013-02-11 00:22:00,44.7,41.0,29.81,SE,135,0.0,1.2,85,0.00,,,0.00,Rainwise IP-100,2013-02-11 08:22:00,
2013-02-11 00:27:00,45.1,40.0,29.81,ENE,67,1.9,3.3,82,0.00,,,0.00,Rainwise IP-100,2013-02-11 08:27:00,
2013-02-11 00:32:00,46.3,39.0,29.81,SW,225,1.9,4.9,77,0.00,,,0.00,Rainwise IP-100,2013-02-11 08:32:00,
2013-02-11 00:37:00,46.4,39.0,29.81,SSW,202,0.0,3.5,78,0.00,,,0.00,Rainwise IP-100,2013-02-11 08:37:00,
2013-02-11 00:42:00,45.6,41.0,29.81,SSW,202,1.2,0.0,83,0.00,,,0.00,Rainwise IP-100,2013-02-11 08:42:00,
2013-02-11 00:47:00,45.2,41.0,29.81,SSW,202,0.0,1.6,85,0.00,,,0.00,Rainwise IP-100,2013-02-11 08:47:00,
2013-02-11 00:52:00,44.8,41.0,29.82,WSW,247,2.1,3.0,86,0.00,,,0.00,Rainwise IP-100,2013-02-11 08:52:00,
2013-02-11 00:57:00,44.6,41.0,29.81,SW,225,0.0,2.8,86,0.00,,,0.00,Rainwise IP-100,2013-02-11 08:57:00,
2013-02-11 01:02:00,44.3,40.0,29.81,SW,225,1.4,1.6,87,0.00,,,0.00,Rainwise IP-100,2013-02-11 09:02:00,
2013-02-11 01:07:00,44.0,40.0,29.81,SW,225,0.0,1.6,87,0.00,,,0.00,Rainwise IP-100,2013-02-11 09:07:00,
2013-02-11 01:12:00,44.0,40.0,29.81,NE,45,0.0,1.4,87,0.00,,,0.00,Rainwise IP-100,2013-02-11 09:12:00,
2013-02-11 01:17:00,44.5,40.0,29.81,NE,45,3.7,4.0,84,0.00,,,0.00,Rainwise IP-100,2013-02-11 09:17:00,
2013-02-11 01:22:00,45.7,39.0,29.82,NE,45,2.6,4.7,79,0.00,,,0.00,Rainwise IP-100,2013-02-11 09:22:00,
2013-02-11 01:27:00,46.7,39.0,29.82,ENE,67,3.7,4.4,74,0.00,,,0.00,Rainwise IP-100,2013-02-11 09:27:00,
2013-02-11 01:32:00,47.4,38.0,29.82,ENE,67,4.4,5.4,71,0.00,,,0.00,Rainwise IP-100,2013-02-11 09:32:00,
2013-02-11 01:37:00,48.1,38.0,29.82,ENE,67,3.5,5.4,67,0.00,,,0.00,Rainwise IP-100,2013-02-11 09:37:00,
2013-02-11 01:42:00,48.7,37.0,29.82,NE,45,4.4,4.9,64,0.00,,,0.00,Rainwise IP-100,2013-02-11 09:42:00,
2013-02-11 01:47:00,49.1,36.0,29.82,NE,45,1.6,4.4,61,0.00,,,0.00,Rainwise IP-100,2013-02-11 09:47:00,
2013-02-11 01:52:00,49.2,36.0,29.82,NE,45,2.1,4.4,59,0.00,,,0.00,Rainwise IP-100,2013-02-11 09:52:00,
2013-02-11 01:57:00,49.1,36.0,29.82,NE,45,2.8,4.0,59,0.00,,,0.00,Rainwise IP-100,2013-02-11 09:57:00,
2013-02-11 02:02:00,48.9,36.0,29.82,NE,45,4.4,5.4,59,0.00,,,0.00,Rainwise IP-100,2013-02-11 10:02:00,
2013-02-11 02:07:00,49.2,35.0,29.82,ENE,67,1.9,5.4,58,0.00,,,0.00,Rainwise IP-100,2013-02-11 10:07:00,
2013-02-11 02:12:00,49.5,35.0,29.82,ENE,67,2.8,4.2,56,0.00,,,0.00,Rainwise IP-100,2013-02-11 10:12:00,
2013-02-11 02:17:00,49.6,35.0,29.82,NE,45,2.8,4.2,55,0.00,,,0.00,Rainwise IP-100,2013-02-11 10:17:00,
2013-02-11 02:22:00,49.7,33.0,29.82,ENE,67,2.3,4.0,54,0.00,,,0.00,Rainwise IP-100,2013-02-11 10:22:00,
2013-02-11 02:27:00,49.8,33.0,29.82,ENE,67,2.1,3.5,53,0.00,,,0.00,Rainwise IP-100,2013-02-11 10:27:00,
2013-02-11 02:32:00,49.7,33.0,29.82,ENE,67,3.3,4.0,52,0.00,,,0.00,Rainwise IP-100,2013-02-11 10:32:00,
2013-02-11 02:37:00,49.6,33.0,29.83,ENE,67,1.2,3.3,52,0.00,,,0.00,Rainwise IP-100,2013-02-11 10:37:00,
2013-02-11 02:42:00,49.3,33.0,29.83,ENE,67,1.6,3.0,53,0.00,,,0.00,Rainwise IP-100,2013-02-11 10:42:00,
2013-02-11 02:47:00,48.8,33.0,29.83,ENE,67,1.6,2.3,53,0.00,,,0.00,Rainwise IP-100,2013-02-11 10:47:00,
2013-02-11 02:52:00,48.4,32.0,29.83,ENE,67,1.2,2.8,54,0.00,,,0.00,Rainwise IP-100,2013-02-11 10:52:00,
2013-02-11 02:57:00,47.9,33.0,29.83,ENE,67,0.0,1.6,55,0.00,,,0.00,Rainwise IP-100,2013-02-11 10:57:00,
2013-02-11 03:02:00,47.3,33.0,29.83,ENE,67,1.6,2.3,57,0.00,,,0.00,Rainwise IP-100,2013-02-11 11:02:00,
2013-02-11 03:07:00,47.1,32.0,29.82,ENE,67,0.0,2.3,57,0.00,,,0.00,Rainwise IP-100,2013-02-11 11:07:00,
2013-02-11 03:12:00,47.2,32.0,29.82,ENE,67,1.6,1.9,57,0.00,,,0.00,Rainwise IP-100,2013-02-11 11:12:00,
2013-02-11 03:17:00,47.3,33.0,29.82,ENE,67,1.2,2.6,57,0.00,,,0.00,Rainwise IP-100,2013-02-11 11:17:00,
2013-02-11 03:22:00,47.2,32.0,29.82,ENE,67,0.0,2.3,56,0.00,,,0.00,Rainwise IP-100,2013-02-11 11:22:00,
2013-02-11 03:27:00,46.8,32.0,29.82,ENE,67,1.9,1.9,57,0.00,,,0.00,Rainwise IP-100,2013-02-11 11:27:00,
2013-02-11 03:32:00,46.7,32.0,29.82,ENE,67,1.4,2.3,57,0.00,,,0.00,Rainwise IP-100,2013-02-11 11:32:00,
2013-02-11 03:37:00,46.8,32.0,29.82,ENE,67,1.6,2.1,56,0.00,,,0.00,Rainwise IP-100,2013-02-11 11:37:00,
2013-02-11 03:42:00,46.8,32.0,29.83,ENE,67,0.0,2.3,56,0.00,,,0.00,Rainwise IP-100,2013-02-11 11:42:00,
2013-02-11 03:47:00,46.8,32.0,29.83,ENE,67,1.6,2.1,56,0.00,,,0.00,Rainwise IP-100,2013-02-11 11:47:00,
2013-02-11 03:52:00,47.0,32.0,29.82,ENE,67,1.9,2.1,55,0.00,,,0.00,Rainwise IP-100,2013-02-11 11:52:00,
2013-02-11 03:57:00,47.5,31.0,29.83,ENE,67,0.0,2.3,53,0.00,,,0.00,Rainwise IP-100,2013-02-11 11:57:00,
2013-02-11 04:02:00,47.6,31.0,29.83,ENE,67,0.0,1.6,53,0.00,,,0.00,Rainwise IP-100,2013-02-11 12:02:00,
2013-02-11 04:07:00,47.4,31.0,29.83,ENE,67,0.0,1.4,53,0.00,,,0.00,Rainwise IP-100,2013-02-11 12:07:00,
2013-02-11 04:12:00,47.1,31.0,29.83,ENE,67,0.0,1.2,54,0.00,,,0.00,Rainwise IP-100,2013-02-11 12:12:00,
2013-02-11 04:17:00,46.7,32.0,29.83,ENE,67,0.0,0.0,55,0.00,,,0.00,Rainwise IP-100,2013-02-11 12:17:00,
2013-02-11 04:22:00,46.1,31.0,29.83,ENE,67,0.0,0.0,56,0.00,,,0.00,Rainwise IP-100,2013-02-11 12:22:00,
2013-02-11 04:27:00,45.2,31.0,29.83,ENE,67,0.0,0.0,58,0.00,,,0.00,Rainwise IP-100,2013-02-11 12:27:00,
2013-02-11 04:32:00,44.4,32.0,29.83,ENE,67,0.0,0.0,61,0.00,,,0.00,Rainwise IP-100,2013-02-11 12:32:00,
2013-02-11 04:37:00,44.1,32.0,29.83,ENE,67,0.0,0.0,62,0.00,,,0.00,Rainwise IP-100,2013-02-11 12:37:00,
2013-02-11 04:42:00,43.9,32.0,29.83,ENE,67,0.0,1.4,62,0.00,,,0.00,Rainwise IP-100,2013-02-11 12:42:00,
2013-02-11 04:47:00,44.1,32.0,29.83,ENE,67,1.4,2.6,61,0.00,,,0.00,Rainwise IP-100,2013-02-11 12:47:00,
2013-02-11 04:52:00,45.0,31.0,29.84,ENE,67,0.0,1.6,58,0.00,,,0.00,Rainwise IP-100,2013-02-11 12:52:00,
2013-02-11 04:57:00,45.9,31.0,29.83,ENE,67,0.0,1.6,56,0.00,,,0.00,Rainwise IP-100,2013-02-11 12:57:00,
2013-02-11 05:02:00,46.6,31.0,29.84,ENE,67,1.6,2.6,54,0.00,,,0.00,Rainwise IP-100,2013-02-11 13:02:00,
2013-02-11 05:07:00,47.0,31.0,29.84,ENE,67,3.0,4.2,53,0.00,,,0.00,Rainwise IP-100,2013-02-11 13:07:00,
2013-02-11 05:12:00,47.7,31.0,29.84,ENE,67,3.0,4.9,51,0.00,,,0.00,Rainwise IP-100,2013-02-11 13:12:00,
2013-02-11 05:17:00,48.4,31.0,29.84,ENE,67,1.9,4.9,50,0.00,,,0.00,Rainwise IP-100,2013-02-11 13:17:00,
2013-02-11 05:22:00,48.6,31.0,29.84,ENE,67,0.0,4.2,49,0.00,,,0.00,Rainwise IP-100,2013-02-11 13:22:00,
2013-02-11 05:27:00,48.5,31.0,29.84,NE,45,1.4,2.8,49,0.00,,,0.00,Rainwise IP-100,2013-02-11 13:27:00,
2013-02-11 05:32:00,48.3,31.0,29.84,NE,45,0.0,2.6,49,0.00,,,0.00,Rainwise IP-100,2013-02-11 13:32:00,
2013-02-11 05:37:00,47.8,31.0,29.84,NE,45,1.4,1.4,50,0.00,,,0.00,Rainwise IP-100,2013-02-11 13:37:00,
2013-02-11 05:42:00,47.2,31.0,29.84,NE,45,0.0,1.9,52,0.00,,,0.00,Rainwise IP-100,2013-02-11 13:42:00,
2013-02-11 05:47:00,46.8,31.0,29.84,NE,45,1.2,2.1,53,0.00,,,0.00,Rainwise IP-100,2013-02-11 13:47:00,
2013-02-11 05:52:00,46.6,31.0,29.84,NE,45,0.0,1.6,54,0.00,,,0.00,Rainwise IP-100,2013-02-11 13:52:00,
2013-02-11 05:57:00,46.4,31.0,29.85,NE,45,1.9,2.3,55,0.00,,,0.00,Rainwise IP-100,2013-02-11 13:57:00,
2013-02-11 06:02:00,46.2,31.0,29.84,NE,45,1.4,2.6,56,0.00,,,0.00,Rainwise IP-100,2013-02-11 14:02:00,
2013-02-11 06:07:00,46.1,32.0,29.85,NE,45,2.8,3.5,57,0.00,,,0.00,Rainwise IP-100,2013-02-11 14:07:00,
2013-02-11 06:12:00,46.6,32.0,29.85,ENE,67,2.1,4.9,56,0.00,,,0.00,Rainwise IP-100,2013-02-11 14:12:00,
2013-02-11 06:17:00,47.1,32.0,29.86,ENE,67,1.2,5.4,56,0.00,,,0.00,Rainwise IP-100,2013-02-11 14:17:00,
2013-02-11 06:22:00,47.5,32.0,29.86,NE,45,1.9,5.1,55,0.00,,,0.00,Rainwise IP-100,2013-02-11 14:22:00,
2013-02-11 06:27:00,47.4,32.0,29.86,NE,45,2.6,3.7,55,0.00,,,0.00,Rainwise IP-100,2013-02-11 14:27:00,
2013-02-11 06:32:00,46.9,32.0,29.86,NE,45,3.7,5.6,57,0.00,,,0.00,Rainwise IP-100,2013-02-11 14:32:00,
2013-02-11 06:37:00,47.0,32.0,29.87,NE,45,1.4,5.1,57,0.00,,,0.00,Rainwise IP-100,2013-02-11 14:37:00,
2013-02-11 06:42:00,47.0,32.0,29.86,NE,45,3.3,4.9,57,0.00,,,0.00,Rainwise IP-100,2013-02-11 14:42:00,
2013-02-11 06:47:00,47.0,32.0,29.87,NE,45,3.0,6.1,57,0.00,,,0.00,Rainwise IP-100,2013-02-11 14:47:00,
2013-02-11 06:52:00,47.2,32.0,29.87,NE,45,1.9,3.7,57,0.00,,,0.00,Rainwise IP-100,2013-02-11 14:52:00,
2013-02-11 06:57:00,47.1,32.0,29.87,ENE,67,2.8,3.5,57,0.00,,,0.00,Rainwise IP-100,2013-02-11 14:57:00,
2013-02-11 07:02:00,47.1,32.0,29.87,ENE,67,4.2,6.8,57,0.00,,,0.00,Rainwise IP-100,2013-02-11 15:02:00,
2013-02-11 07:07:00,47.3,32.0,29.86,East,90,0.0,8.2,56,0.00,,,0.00,Rainwise IP-100,2013-02-11 15:07:00,
2013-02-11 07:12:00,47.7,32.0,29.86,NE,45,3.7,10.3,54,0.00,,,0.00,Rainwise IP-100,2013-02-11 15:12:00,
2013-02-11 07:17:00,48.0,32.0,29.85,ENE,67,4.9,12.1,53,0.00,,,0.00,Rainwise IP-100,2013-02-11 15:17:00,
2013-02-11 07:22:00,48.2,32.0,29.86,ENE,67,7.0,11.4,54,0.00,,,0.00,Rainwise IP-100,2013-02-11 15:22:00,
2013-02-11 07:27:00,48.2,33.0,29.86,NE,45,10.5,11.7,55,0.00,,,0.00,Rainwise IP-100,2013-02-11 15:27:00,
2013-02-11 07:32:00,48.3,32.0,29.86,ENE,67,10.0,12.1,54,0.00,,,0.00,Rainwise IP-100,2013-02-11 15:32:00,
2013-02-11 07:37:00,48.6,32.0,29.86,ENE,67,3.7,12.6,52,0.00,,,0.00,Rainwise IP-100,2013-02-11 15:37:00,
2013-02-11 07:42:00,48.9,32.0,29.88,NNE,22,7.5,11.0,51,0.00,,,0.00,Rainwise IP-100,2013-02-11 15:42:00,
2013-02-11 07:47:00,49.1,32.0,29.88,NNE,22,3.5,10.0,50,0.00,,,0.00,Rainwise IP-100,2013-02-11 15:47:00,
2013-02-11 07:52:00,49.2,31.0,29.88,ENE,67,7.0,9.1,49,0.00,,,0.00,Rainwise IP-100,2013-02-11 15:52:00,
2013-02-11 07:57:00,49.4,29.0,29.89,ENE,67,3.5,11.0,47,0.00,,,0.00,Rainwise IP-100,2013-02-11 15:57:00,
2013-02-11 08:02:00,49.8,31.0,29.89,ENE,67,4.4,8.2,46,0.00,,,0.00,Rainwise IP-100,2013-02-11 16:02:00,
2013-02-11 08:07:00,49.9,29.0,29.90,NE,45,3.0,7.9,45,0.00,,,0.00,Rainwise IP-100,2013-02-11 16:07:00,
2013-02-11 08:12:00,50.0,29.0,29.90,ENE,67,2.6,6.8,44,0.00,,,0.00,Rainwise IP-100,2013-02-11 16:12:00,
2013-02-11 08:17:00,50.3,29.0,29.90,NE,45,5.8,7.9,44,0.00,,,0.00,Rainwise IP-100,2013-02-11 16:17:00,
2013-02-11 08:22:00,50.7,29.0,29.90,ENE,67,4.0,7.9,44,0.00,,,0.00,Rainwise IP-100,2013-02-11 16:22:00,
2013-02-11 08:27:00,51.1,29.0,29.91,ENE,67,3.5,8.6,43,0.00,,,0.00,Rainwise IP-100,2013-02-11 16:27:00,
2013-02-11 08:32:00,51.5,29.0,29.92,NE,45,2.8,8.2,42,0.00,,,0.00,Rainwise IP-100,2013-02-11 16:32:00,
2013-02-11 08:37:00,51.8,29.0,29.92,NE,45,7.9,9.1,42,0.00,,,0.00,Rainwise IP-100,2013-02-11 16:37:00,
2013-02-11 08:42:00,51.9,29.0,29.92,NNE,22,3.5,9.6,42,0.00,,,0.00,Rainwise IP-100,2013-02-11 16:42:00,
2013-02-11 08:47:00,52.1,31.0,29.92,ENE,67,2.1,9.8,43,0.00,,,0.00,Rainwise IP-100,2013-02-11 16:47:00,
2013-02-11 08:52:00,52.3,31.0,29.92,ENE,67,3.5,6.3,43,0.00,,,0.00,Rainwise IP-100,2013-02-11 16:52:00,
2013-02-11 08:57:00,52.5,31.0,29.91,ENE,67,3.0,7.5,43,0.00,,,0.00,Rainwise IP-100,2013-02-11 16:57:00,
2013-02-11 09:02:00,52.7,31.0,29.92,ENE,67,5.4,7.5,43,0.00,,,0.00,Rainwise IP-100,2013-02-11 17:02:00,
2013-02-11 09:07:00,53.0,31.0,29.92,ESE,112,4.7,10.7,42,0.00,,,0.00,Rainwise IP-100,2013-02-11 17:07:00,
2013-02-11 09:12:00,53.1,31.0,29.92,ENE,67,5.4,10.5,42,0.00,,,0.00,Rainwise IP-100,2013-02-11 17:12:00,
2013-02-11 09:17:00,53.3,31.0,29.92,NNE,22,4.9,8.9,41,0.00,,,0.00,Rainwise IP-100,2013-02-11 17:17:00,
2013-02-11 09:22:00,54.1,31.0,29.92,NNE,22,0.0,4.9,40,0.00,,,0.00,Rainwise IP-100,2013-02-11 17:22:00,
2013-02-11 09:27:00,54.8,31.0,29.93,NNE,22,3.7,6.8,38,0.00,,,0.00,Rainwise IP-100,2013-02-11 17:27:00,
2013-02-11 09:32:00,55.0,29.0,29.93,ENE,67,3.7,6.5,37,0.00,,,0.00,Rainwise IP-100,2013-02-11 17:32:00,
2013-02-11 09:37:00,55.2,29.0,29.93,East,90,1.9,6.5,37,0.00,,,0.00,Rainwise IP-100,2013-02-11 17:37:00,
2013-02-11 09:42:00,55.0,29.0,29.93,NE,45,5.6,13.3,36,0.00,,,0.00,Rainwise IP-100,2013-02-11 17:42:00,
2013-02-11 09:47:00,55.1,29.0,29.93,ENE,67,6.1,10.0,36,0.00,,,0.00,Rainwise IP-100,2013-02-11 17:47:00,
2013-02-11 09:52:00,55.4,28.0,29.94,NNE,22,4.9,10.7,35,0.00,,,0.00,Rainwise IP-100,2013-02-11 17:52:00,
2013-02-11 09:57:00,55.4,28.0,29.94,ENE,67,6.5,10.7,34,0.00,,,0.00,Rainwise IP-100,2013-02-11 17:57:00,
2013-02-11 10:02:00,55.6,28.0,29.93,NNE,22,3.3,8.2,34,0.00,,,0.00,Rainwise IP-100,2013-02-11 18:02:00,
2013-02-11 10:07:00,55.9,28.0,29.94,NNE,22,6.5,9.6,33,0.00,,,0.00,Rainwise IP-100,2013-02-11 18:07:00,
2013-02-11 10:12:00,55.8,26.0,29.93,ENE,67,2.3,13.3,32,0.00,,,0.00,Rainwise IP-100,2013-02-11 18:12:00,
2013-02-11 10:17:00,55.8,26.0,29.94,NE,45,5.8,13.3,32,0.00,,,0.00,Rainwise IP-100,2013-02-11 18:17:00,
2013-02-11 10:22:00,56.2,26.0,29.94,NE,45,6.8,10.5,32,0.00,,,0.00,Rainwise IP-100,2013-02-11 18:22:00,
2013-02-11 10:24:00,56.5,28.0,29.94,ENE,67,5.8,8.6,32,0.00,,,0.00,Rainwise IP-100,2013-02-11 18:24:00,
2013-02-11 10:29:00,56.7,28.0,29.94,NNE,22,7.5,10.3,32,0.00,,,0.00,Rainwise IP-100,2013-02-11 18:29:00,
2013-02-11 10:34:00,56.4,28.0,29.94,NE,45,3.7,12.8,32,0.00,,,0.00,Rainwise IP-100,2013-02-11 18:34:00,
2013-02-11 10:39:00,56.6,28.0,29.94,ENE,67,4.9,9.6,32,0.00,,,0.00,Rainwise IP-100,2013-02-11 18:39:00,
2013-02-11 10:44:00,56.9,28.0,29.95,East,90,2.3,10.7,32,0.00,,,0.00,Rainwise IP-100,2013-02-11 18:44:00,
2013-02-11 10:49:00,57.3,28.0,29.94,NE,45,12.4,13.8,31,0.00,,,0.00,Rainwise IP-100,2013-02-11 18:49:00,
2013-02-11 10:54:00,57.3,28.0,29.94,NE,45,13.8,13.8,31,0.00,,,0.00,Rainwise IP-100,2013-02-11 18:54:00,
2013-02-11 10:59:00,57.2,28.0,29.93,NE,45,4.2,14.7,31,0.00,,,0.00,Rainwise IP-100,2013-02-11 18:59:00,
2013-02-11 11:04:00,58.0,28.0,29.94,ENE,67,6.1,8.9,30,0.00,,,0.00,Rainwise IP-100,2013-02-11 19:04:00,
2013-02-11 11:09:00,58.9,28.0,29.94,NNE,22,6.5,10.3,30,0.00,,,0.00,Rainwise IP-100,2013-02-11 19:09:00,
2013-02-11 11:14:00,58.8,28.0,29.94,NE,45,11.0,12.4,30,0.00,,,0.00,Rainwise IP-100,2013-02-11 19:14:00,
2013-02-11 11:19:00,58.7,28.0,29.95,NE,45,6.1,12.4,30,0.00,,,0.00,Rainwise IP-100,2013-02-11 19:19:00,
2013-02-11 11:24:00,58.6,28.0,29.94,ENE,67,8.6,14.9,30,0.00,,,0.00,Rainwise IP-100,2013-02-11 19:24:00,
2013-02-11 11:29:00,58.4,26.0,29.94,ENE,67,1.6,10.0,29,0.00,,,0.00,Rainwise IP-100,2013-02-11 19:29:00,
2013-02-11 11:34:00,58.7,28.0,29.93,ENE,67,9.8,11.2,29,0.00,,,0.00,Rainwise IP-100,2013-02-11 19:34:00,
2013-02-11 11:39:00,58.7,26.0,29.93,ENE,67,5.1,11.7,28,0.00,,,0.00,Rainwise IP-100,2013-02-11 19:39:00,
2013-02-11 11:44:00,58.8,26.0,29.93,ENE,67,7.2,10.5,27,0.00,,,0.00,Rainwise IP-100,2013-02-11 19:44:00,
2013-02-11 11:49:00,59.2,26.0,29.93,ENE,67,3.5,10.3,27,0.00,,,0.00,Rainwise IP-100,2013-02-11 19:49:00,
2013-02-11 11:55:00,59.7,26.0,29.93,NE,45,5.6,11.0,27,0.00,,,0.00,Rainwise IP-100,2013-02-11 19:55:00,
2013-02-11 12:00:00,59.8,26.0,29.92,NNE,22,4.0,11.7,26,0.00,,,0.00,Rainwise IP-100,2013-02-11 20:00:00,
2013-02-11 12:05:00,60.0,26.0,29.93,North,360,5.6,10.3,26,0.00,,,0.00,Rainwise IP-100,2013-02-11 20:05:00,
2013-02-11 12:10:00,60.3,24.0,29.93,ENE,67,2.1,10.3,25,0.00,,,0.00,Rainwise IP-100,2013-02-11 20:10:00,
2013-02-11 12:15:00,60.5,24.0,29.92,NNE,22,1.6,7.9,25,0.00,,,0.00,Rainwise IP-100,2013-02-11 20:15:00,
2013-02-11 12:20:00,60.6,24.0,29.92,NNE,22,2.8,10.5,25,0.00,,,0.00,Rainwise IP-100,2013-02-11 20:20:00,
2013-02-11 12:25:00,60.5,24.0,29.92,NE,45,1.2,10.0,25,0.00,,,0.00,Rainwise IP-100,2013-02-11 20:25:00,
2013-02-11 12:30:00,60.4,24.0,29.92,East,90,5.6,10.0,25,0.00,,,0.00,Rainwise IP-100,2013-02-11 20:30:00,
2013-02-11 12:35:00,60.4,24.0,29.92,North,360,4.0,10.3,25,0.00,,,0.00,Rainwise IP-100,2013-02-11 20:35:00,
2013-02-11 12:40:00,61.1,26.0,29.92,North,360,3.7,6.8,25,0.00,,,0.00,Rainwise IP-100,2013-02-11 20:40:00,
2013-02-11 12:45:00,61.9,26.0,29.92,NNE,22,2.1,7.7,25,0.00,,,0.00,Rainwise IP-100,2013-02-11 20:45:00,
2013-02-11 12:50:00,61.8,24.0,29.91,ENE,67,6.5,9.8,24,0.00,,,0.00,Rainwise IP-100,2013-02-11 20:50:00,
2013-02-11 12:55:00,61.2,24.0,29.92,NNE,22,1.9,11.9,24,0.00,,,0.00,Rainwise IP-100,2013-02-11 20:55:00,
2013-02-11 13:00:00,61.4,26.0,29.91,NE,45,4.9,7.9,25,0.00,,,0.00,Rainwise IP-100,2013-02-11 21:00:00,
2013-02-11 13:05:00,61.8,26.0,29.91,ENE,67,6.1,8.9,25,0.00,,,0.00,Rainwise IP-100,2013-02-11 21:05:00,
2013-02-11 13:10:00,61.2,26.0,29.91,North,360,1.4,12.4,25,0.00,,,0.00,Rainwise IP-100,2013-02-11 21:10:00,
2013-02-11 13:15:00,60.6,24.0,29.90,ENE,67,7.9,10.3,25,0.00,,,0.00,Rainwise IP-100,2013-02-11 21:15:00,
2013-02-11 13:20:00,61.1,26.0,29.90,NNE,22,7.9,9.3,25,0.00,,,0.00,Rainwise IP-100,2013-02-11 21:20:00,
2013-02-11 13:25:00,61.8,26.0,29.90,ENE,67,0.0,8.9,25,0.00,,,0.00,Rainwise IP-100,2013-02-11 21:25:00,
2013-02-11 13:30:00,62.2,24.0,29.90,NE,45,5.4,8.2,24,0.00,,,0.00,Rainwise IP-100,2013-02-11 21:30:00,
2013-02-11 13:35:00,62.4,26.0,29.91,NNE,22,3.3,7.7,24,0.00,,,0.00,Rainwise IP-100,2013-02-11 21:35:00,
2013-02-11 13:40:00,62.7,26.0,29.90,West,270,2.6,7.9,25,0.00,,,0.00,Rainwise IP-100,2013-02-11 21:40:00,
2013-02-11 13:45:00,62.8,28.0,29.90,NNW,337,2.6,5.8,26,0.00,,,0.00,Rainwise IP-100,2013-02-11 21:45:00,
2013-02-11 13:50:00,62.5,29.0,29.90,SW,225,0.0,8.4,28,0.00,,,0.00,Rainwise IP-100,2013-02-11 21:50:00,
2013-02-11 13:55:00,62.1,29.0,29.90,NW,315,1.2,7.0,28,0.00,,,0.00,Rainwise IP-100,2013-02-11 21:55:00,
2013-02-11 14:00:00,60.9,31.0,29.90,WSW,247,2.3,10.5,31,0.00,,,0.00,Rainwise IP-100,2013-02-11 22:00:00,
2013-02-11 14:05:00,60.0,32.0,29.90,West,270,4.0,7.9,34,0.00,,,0.00,Rainwise IP-100,2013-02-11 22:05:00,
2013-02-11 14:10:00,60.0,32.0,29.90,WNW,292,5.6,9.1,35,0.00,,,0.00,Rainwise IP-100,2013-02-11 22:10:00,
2013-02-11 14:15:00,60.0,33.0,29.90,SSW,202,6.1,8.9,36,0.00,,,0.00,Rainwise IP-100,2013-02-11 22:15:00,
2013-02-11 14:20:00,59.4,32.0,29.90,West,270,5.1,9.3,35,0.00,,,0.00,Rainwise IP-100,2013-02-11 22:20:00,
2013-02-11 14:25:00,59.0,32.0,29.90,WSW,247,2.3,8.2,35,0.00,,,0.00,Rainwise IP-100,2013-02-11 22:25:00,
2013-02-11 14:30:00,59.0,32.0,29.90,SSW,202,5.8,11.0,35,0.00,,,0.00,Rainwise IP-100,2013-02-11 22:30:00,
2013-02-11 14:35:00,58.9,32.0,29.90,WSW,247,5.8,10.7,36,0.00,,,0.00,Rainwise IP-100,2013-02-11 22:35:00,
2013-02-11 14:40:00,58.9,32.0,29.90,SW,225,6.3,10.7,36,0.00,,,0.00,Rainwise IP-100,2013-02-11 22:40:00,
2013-02-11 14:45:00,58.6,33.0,29.90,SSW,202,4.2,10.7,37,0.00,,,0.00,Rainwise IP-100,2013-02-11 22:45:00,
2013-02-11 14:50:00,58.5,33.0,29.90,SSW,202,7.9,9.1,37,0.00,,,0.00,Rainwise IP-100,2013-02-11 22:50:00,
2013-02-11 14:55:00,58.6,33.0,29.90,SSW,202,4.2,11.9,37,0.00,,,0.00,Rainwise IP-100,2013-02-11 22:55:00,
2013-02-11 15:00:00,58.5,33.0,29.91,SSW,202,3.5,8.9,37,0.00,,,0.00,Rainwise IP-100,2013-02-11 23:00:00,
2013-02-11 15:05:00,58.8,33.0,29.90,SSW,202,3.3,9.8,38,0.00,,,0.00,Rainwise IP-100,2013-02-11 23:05:00,
2013-02-11 15:10:00,59.0,35.0,29.90,SSW,202,6.3,9.1,39,0.00,,,0.00,Rainwise IP-100,2013-02-11 23:10:00,
2013-02-11 15:15:00,58.8,33.0,29.91,SW,225,4.0,9.6,38,0.00,,,0.00,Rainwise IP-100,2013-02-11 23:15:00,
2013-02-11 15:20:00,58.5,33.0,29.90,West,270,5.4,10.3,38,0.00,,,0.00,Rainwise IP-100,2013-02-11 23:20:00,
2013-02-11 15:25:00,58.5,33.0,29.90,SSW,202,8.2,10.0,38,0.00,,,0.00,Rainwise IP-100,2013-02-11 23:25:00,
2013-02-11 15:30:00,58.7,33.0,29.90,SW,225,5.1,8.9,38,0.00,,,0.00,Rainwise IP-100,2013-02-11 23:30:00,
2013-02-11 15:35:00,58.9,35.0,29.90,SW,225,3.7,9.3,39,0.00,,,0.00,Rainwise IP-100,2013-02-11 23:35:00,
2013-02-11 15:40:00,58.7,35.0,29.91,SSW,202,8.2,10.7,40,0.00,,,0.00,Rainwise IP-100,2013-02-11 23:40:00,
2013-02-11 15:45:00,58.2,36.0,29.90,SSW,202,11.4,11.9,43,0.00,,,0.00,Rainwise IP-100,2013-02-11 23:45:00,
2013-02-11 15:50:00,57.5,37.0,29.91,SSW,202,2.6,13.3,46,0.00,,,0.00,Rainwise IP-100,2013-02-11 23:50:00,
2013-02-11 15:55:00,56.9,38.0,29.91,WSW,247,4.9,13.8,48,0.00,,,0.00,Rainwise IP-100,2013-02-11 23:55:00,
2013-02-11 16:00:00,56.5,39.0,29.91,WSW,247,3.3,11.2,52,0.00,,,0.00,Rainwise IP-100,2013-02-12 00:00:00,
2013-02-11 16:05:00,55.9,40.0,29.91,SW,225,4.0,14.0,56,0.00,,,0.00,Rainwise IP-100,2013-02-12 00:05:00,
2013-02-11 16:10:00,55.4,41.0,29.91,SW,225,6.3,13.3,60,0.00,,,0.00,Rainwise IP-100,2013-02-12 00:10:00,
2013-02-11 16:15:00,54.9,43.0,29.91,SW,225,8.4,15.2,64,0.00,,,0.00,Rainwise IP-100,2013-02-12 00:15:00,
2013-02-11 16:20:00,54.4,44.0,29.91,West,270,3.0,11.0,68,0.00,,,0.00,Rainwise IP-100,2013-02-12 00:20:00,
2013-02-11 16:25:00,54.0,44.0,29.91,SW,225,10.3,11.7,70,0.00,,,0.00,Rainwise IP-100,2013-02-12 00:25:00,
2013-02-11 16:30:00,53.7,45.0,29.92,SW,225,6.8,11.7,72,0.00,,,0.00,Rainwise IP-100,2013-02-12 00:30:00,
2013-02-11 16:35:00,53.4,45.0,29.91,SW,225,3.7,12.4,73,0.00,,,0.00,Rainwise IP-100,2013-02-12 00:35:00,
2013-02-11 16:40:00,53.6,45.0,29.91,SW,225,7.9,11.0,73,0.00,,,0.00,Rainwise IP-100,2013-02-12 00:40:00,
2013-02-11 16:45:00,53.6,45.0,29.91,SSW,202,6.8,10.5,74,0.00,,,0.00,Rainwise IP-100,2013-02-12 00:45:00,
2013-02-11 16:50:00,53.4,46.0,29.91,WSW,247,6.8,8.2,75,0.00,,,0.00,Rainwise IP-100,2013-02-12 00:50:00,
2013-02-11 16:55:00,53.4,46.0,29.92,WNW,292,3.3,7.9,75,0.00,,,0.00,Rainwise IP-100,2013-02-12 00:55:00,
2013-02-11 17:00:00,53.2,45.0,29.92,West,270,6.1,10.3,76,0.00,,,0.00,Rainwise IP-100,2013-02-12 01:00:00,
2013-02-11 17:05:00,52.7,46.0,29.91,SW,225,4.4,11.2,77,0.00,,,0.00,Rainwise IP-100,2013-02-12 01:05:00,
2013-02-11 17:10:00,52.2,46.0,29.92,WSW,247,3.7,9.8,79,0.00,,,0.00,Rainwise IP-100,2013-02-12 01:10:00,
2013-02-11 17:15:00,51.8,47.0,29.92,WSW,247,6.1,12.1,81,0.00,,,0.00,Rainwise IP-100,2013-02-12 01:15:00,
2013-02-11 17:20:00,51.3,47.0,29.92,SW,225,3.0,11.2,83,0.00,,,0.00,Rainwise IP-100,2013-02-12 01:20:00,
2013-02-11 17:25:00,50.9,47.0,29.92,SW,225,8.9,10.3,84,0.00,,,0.00,Rainwise IP-100,2013-02-12 01:25:00,
2013-02-11 17:30:00,50.6,46.0,29.92,WSW,247,7.0,10.0,85,0.00,,,0.00,Rainwise IP-100,2013-02-12 01:30:00,
2013-02-11 17:35:00,50.5,47.0,29.92,SW,225,7.7,7.9,86,0.00,,,0.00,Rainwise IP-100,2013-02-12 01:35:00,
2013-02-11 17:40:00,50.4,47.0,29.92,SSW,202,5.6,9.6,86,0.00,,,0.00,Rainwise IP-100,2013-02-12 01:40:00,
2013-02-11 17:45:00,50.2,46.0,29.92,SW,225,4.7,11.4,87,0.00,,,0.00,Rainwise IP-100,2013-02-12 01:45:00,
2013-02-11 17:50:00,50.1,46.0,29.91,SW,225,6.3,7.9,87,0.00,,,0.00,Rainwise IP-100,2013-02-12 01:50:00,
2013-02-11 17:55:00,50.0,47.0,29.92,SW,225,6.1,10.0,88,0.00,,,0.00,Rainwise IP-100,2013-02-12 01:55:00,
2013-02-11 18:00:00,50.0,47.0,29.92,WSW,247,5.1,12.1,88,0.00,,,0.00,Rainwise IP-100,2013-02-12 02:00:00,
2013-02-11 18:05:00,49.9,47.0,29.92,WSW,247,2.8,9.1,89,0.00,,,0.00,Rainwise IP-100,2013-02-12 02:05:00,
2013-02-11 18:10:00,49.8,47.0,29.92,SW,225,0.0,6.1,89,0.00,,,0.00,Rainwise IP-100,2013-02-12 02:10:00,
2013-02-11 18:15:00,49.6,47.0,29.92,SW,225,1.9,7.5,89,0.00,,,0.00,Rainwise IP-100,2013-02-12 02:15:00,
2013-02-11 18:20:00,49.4,46.0,29.92,WSW,247,2.6,7.9,89,0.00,,,0.00,Rainwise IP-100,2013-02-12 02:20:00,
2013-02-11 18:25:00,49.3,47.0,29.92,WSW,247,4.9,8.9,90,0.00,,,0.00,Rainwise IP-100,2013-02-12 02:25:00,
2013-02-11 18:30:00,49.3,47.0,29.93,SW,225,3.3,5.8,90,0.00,,,0.00,Rainwise IP-100,2013-02-12 02:30:00,
2013-02-11 18:35:00,49.2,47.0,29.92,West,270,1.9,7.7,91,0.00,,,0.00,Rainwise IP-100,2013-02-12 02:35:00,
2013-02-11 18:40:00,49.1,47.0,29.93,WSW,247,3.7,8.2,91,0.00,,,0.00,Rainwise IP-100,2013-02-12 02:40:00,
2013-02-11 18:45:00,49.2,47.0,29.93,SW,225,6.1,8.2,91,0.00,,,0.00,Rainwise IP-100,2013-02-12 02:45:00,
2013-02-11 18:50:00,49.2,47.0,29.93,SW,225,4.7,7.2,91,0.00,,,0.00,Rainwise IP-100,2013-02-12 02:50:00,
2013-02-11 18:55:00,49.1,47.0,29.93,WSW,247,2.8,7.2,92,0.00,,,0.00,Rainwise IP-100,2013-02-12 02:55:00,
2013-02-11 19:00:00,48.9,47.0,29.93,WSW,247,4.7,6.8,92,0.00,,,0.00,Rainwise IP-100,2013-02-12 03:00:00,
2013-02-11 19:05:00,48.9,47.0,29.94,SSW,202,6.5,8.6,92,0.00,,,0.00,Rainwise IP-100,2013-02-12 03:05:00,
2013-02-11 19:10:00,48.9,47.5,29.94,WSW,247,4.0,7.7,93,0.00,,,0.00,Rainwise IP-100,2013-02-12 03:10:00,
2013-02-11 19:15:00,48.8,47.5,29.93,WSW,247,4.9,7.5,93,0.00,,,0.00,Rainwise IP-100,2013-02-12 03:15:00,
2013-02-11 19:20:00,48.7,47.5,29.93,SSW,202,2.1,7.7,93,0.00,,,0.00,Rainwise IP-100,2013-02-12 03:20:00,
2013-02-11 19:25:00,48.6,47.5,29.94,SSW,202,4.2,7.9,93,0.00,,,0.00,Rainwise IP-100,2013-02-12 03:25:00,
2013-02-11 19:30:00,48.5,47.5,29.93,SW,225,3.5,8.9,93,0.00,,,0.00,Rainwise IP-100,2013-02-12 03:30:00,
2013-02-11 19:35:00,48.4,47.0,29.94,WSW,247,2.6,5.4,93,0.00,,,0.00,Rainwise IP-100,2013-02-12 03:35:00,
2013-02-11 19:40:00,48.3,47.0,29.93,SW,225,6.3,9.1,93,0.00,,,0.00,Rainwise IP-100,2013-02-12 03:40:00,
2013-02-11 19:45:00,48.4,47.0,29.93,SW,225,6.1,8.2,93,0.00,,,0.00,Rainwise IP-100,2013-02-12 03:45:00,
2013-02-11 19:50:00,48.3,47.0,29.93,SSW,202,4.0,8.2,93,0.00,,,0.00,Rainwise IP-100,2013-02-12 03:50:00,
2013-02-11 19:55:00,48.3,47.0,29.94,SW,225,3.3,9.1,93,0.00,,,0.00,Rainwise IP-100,2013-02-12 03:55:00,
2013-02-11 20:00:00,48.3,47.0,29.94,SW,225,3.0,7.2,93,0.00,,,0.00,Rainwise IP-100,2013-02-12 04:00:00,
2013-02-11 20:05:00,48.3,47.0,29.94,SW,225,6.3,6.3,93,0.00,,,0.00,Rainwise IP-100,2013-02-12 04:05:00,
2013-02-11 20:10:00,48.3,47.0,29.94,SW,225,7.7,7.9,93,0.00,,,0.00,Rainwise IP-100,2013-02-12 04:10:00,
2013-02-11 20:15:00,48.3,47.0,29.95,WSW,247,5.6,7.7,93,0.00,,,0.00,Rainwise IP-100,2013-02-12 04:15:00,
2013-02-11 20:20:00,48.3,47.0,29.95,SW,225,2.6,9.8,93,0.00,,,0.00,Rainwise IP-100,2013-02-12 04:20:00,
2013-02-11 20:25:00,48.2,47.0,29.95,SSW,202,2.8,8.2,93,0.00,,,0.00,Rainwise IP-100,2013-02-12 04:25:00,
2013-02-11 20:30:00,48.2,47.0,29.95,WSW,247,3.0,7.5,93,0.00,,,0.00,Rainwise IP-100,2013-02-12 04:30:00,
2013-02-11 20:35:00,48.1,47.0,29.95,SW,225,3.7,7.5,93,0.00,,,0.00,Rainwise IP-100,2013-02-12 04:35:00,
2013-02-11 20:40:00,48.1,47.0,29.95,WSW,247,3.5,9.1,94,0.00,,,0.00,Rainwise IP-100,2013-02-12 04:40:00,
2013-02-11 20:45:00,48.1,47.0,29.95,SW,225,4.9,9.1,94,0.00,,,0.00,Rainwise IP-100,2013-02-12 04:45:00,
2013-02-11 20:50:00,48.2,47.0,29.95,SSW,202,6.3,9.1,93,0.00,,,0.00,Rainwise IP-100,2013-02-12 04:50:00,
2013-02-11 20:55:00,48.2,47.0,29.96,WSW,247,6.8,11.2,93,0.00,,,0.00,Rainwise IP-100,2013-02-12 04:55:00,
2013-02-11 21:00:00,48.2,47.0,29.95,SW,225,5.8,11.2,93,0.00,,,0.00,Rainwise IP-100,2013-02-12 05:00:00,
2013-02-11 21:05:00,48.2,47.0,29.95,WSW,247,1.9,10.7,93,0.00,,,0.00,Rainwise IP-100,2013-02-12 05:05:00,
2013-02-11 21:10:00,48.3,47.0,29.96,SW,225,5.4,10.5,93,0.00,,,0.00,Rainwise IP-100,2013-02-12 05:10:00,
2013-02-11 21:15:00,48.3,47.0,29.95,SSW,202,7.7,11.2,93,0.00,,,0.00,Rainwise IP-100,2013-02-12 05:15:00,
2013-02-11 21:16:00,48.3,47.0,29.96,WSW,247,3.5,10.7,93,0.00,,,0.00,Rainwise IP-100,2013-02-12 05:16:00,
2013-02-11 21:21:00,48.3,46.0,29.96,SSW,202,2.8,9.8,92,0.00,,,0.00,Rainwise IP-100,2013-02-12 05:21:00,
2013-02-11 21:26:00,48.2,46.0,29.96,SSW,202,6.8,10.5,92,0.00,,,0.00,Rainwise IP-100,2013-02-12 05:26:00,
2013-02-11 21:31:00,48.2,46.0,29.96,SW,225,7.2,8.9,92,0.00,,,0.00,Rainwise IP-100,2013-02-12 05:31:00,
2013-02-11 21:36:00,48.2,46.0,29.96,WSW,247,2.8,9.6,92,0.00,,,0.00,Rainwise IP-100,2013-02-12 05:36:00,
2013-02-11 21:41:00,48.1,46.0,29.95,SSW,202,5.1,9.6,92,0.00,,,0.00,Rainwise IP-100,2013-02-12 05:41:00,
2013-02-11 21:46:00,48.0,46.0,29.96,SW,225,7.0,13.3,92,0.00,,,0.00,Rainwise IP-100,2013-02-12 05:46:00,
2013-02-11 21:51:00,48.0,46.0,29.96,SW,225,8.6,9.8,92,0.00,,,0.00,Rainwise IP-100,2013-02-12 05:51:00,
2013-02-11 21:56:00,47.9,46.0,29.96,SSW,202,5.4,11.9,92,0.00,,,0.00,Rainwise IP-100,2013-02-12 05:56:00,
2013-02-11 22:01:00,48.0,46.0,29.96,WSW,247,4.4,9.8,92,0.00,,,0.00,Rainwise IP-100,2013-02-12 06:01:00,
2013-02-11 22:06:00,48.1,46.0,29.96,SW,225,5.1,7.5,92,0.00,,,0.00,Rainwise IP-100,2013-02-12 06:06:00,
2013-02-11 22:11:00,48.1,46.0,29.96,SW,225,5.1,10.5,92,0.00,,,0.00,Rainwise IP-100,2013-02-12 06:11:00,
2013-02-11 22:16:00,48.1,46.0,29.96,SW,225,7.9,10.3,92,0.00,,,0.00,Rainwise IP-100,2013-02-12 06:16:00,
2013-02-11 22:21:00,48.1,46.0,29.95,WNW,292,3.3,9.1,92,0.00,,,0.00,Rainwise IP-100,2013-02-12 06:21:00,
2013-02-11 22:26:00,48.0,46.0,29.95,WSW,247,2.8,9.1,92,0.00,,,0.00,Rainwise IP-100,2013-02-12 06:26:00,
2013-02-11 22:31:00,47.9,46.0,29.96,WSW,247,5.6,8.2,92,0.00,,,0.00,Rainwise IP-100,2013-02-12 06:31:00,
2013-02-11 22:36:00,47.8,46.0,29.95,SW,225,2.3,9.6,92,0.00,,,0.00,Rainwise IP-100,2013-02-12 06:36:00,
2013-02-11 22:41:00,47.8,46.0,29.95,SSW,202,5.6,9.3,92,0.00,,,0.00,Rainwise IP-100,2013-02-12 06:41:00,
2013-02-11 22:46:00,47.8,46.0,29.96,SW,225,4.0,10.3,92,0.00,,,0.00,Rainwise IP-100,2013-02-12 06:46:00,
2013-02-11 22:51:00,47.7,45.0,29.96,SSW,202,7.2,8.2,92,0.00,,,0.00,Rainwise IP-100,2013-02-12 06:51:00,
2013-02-11 22:52:00,47.7,45.0,29.96,SSW,202,6.5,8.2,92,0.00,,,0.00,Rainwise IP-100,2013-02-12 06:52:00,
2013-02-11 22:57:00,47.6,45.0,29.96,SSW,202,6.5,9.3,92,0.00,,,0.00,Rainwise IP-100,2013-02-12 06:57:00,
2013-02-11 23:02:00,47.6,45.0,29.97,SSW,202,7.0,8.9,92,0.00,,,0.00,Rainwise IP-100,2013-02-12 07:02:00,
2013-02-11 23:04:00,47.6,45.0,29.96,WSW,247,7.0,8.9,92,0.00,,,0.00,Rainwise IP-100,2013-02-12 07:04:00,
2013-02-11 23:09:00,47.6,45.0,29.96,SSW,202,6.3,11.2,92,0.00,,,0.00,Rainwise IP-100,2013-02-12 07:09:00,
2013-02-11 23:14:00,47.6,45.0,29.97,SSW,202,4.7,8.9,92,0.00,,,0.00,Rainwise IP-100,2013-02-12 07:14:00,
2013-02-11 23:19:00,47.7,45.0,29.96,SW,225,4.9,9.6,92,0.00,,,0.00,Rainwise IP-100,2013-02-12 07:19:00,
2013-02-11 23:24:00,47.6,45.0,29.97,SW,225,10.3,10.5,92,0.00,,,0.00,Rainwise IP-100,2013-02-12 07:24:00,
2013-02-11 23:29:00,47.6,45.0,29.97,SW,225,4.2,10.5,92,0.00,,,0.00,Rainwise IP-100,2013-02-12 07:29:00,
2013-02-11 23:34:00,47.5,45.0,29.98,SW,225,4.0,7.2,92,0.00,,,0.00,Rainwise IP-100,2013-02-12 07:34:00,
2013-02-11 23:39:00,47.6,45.0,29.97,SW,225,9.1,9.1,92,0.00,,,0.00,Rainwise IP-100,2013-02-12 07:39:00,
2013-02-11 23:44:00,47.5,45.0,29.97,SSW,202,9.3,11.2,92,0.00,,,0.00,Rainwise IP-100,2013-02-12 07:44:00,
2013-02-11 23:49:00,47.3,45.0,29.98,SW,225,4.7,10.7,92,0.00,,,0.00,Rainwise IP-100,2013-02-12 07:49:00,
2013-02-11 23:54:00,47.2,44.0,29.97,SSW,202,4.4,10.7,92,0.00,,,0.00,Rainwise IP-100,2013-02-12 07:54:00,
2013-02-11 23:59:00,47.2,44.0,29.98,SSW,202,8.6,9.8,92,0.00,,,0.00,Rainwise IP-100,2013-02-12 07:59:00,